createdAt,value
2023-04-23T00:00:27.073Z,11.73
2023-04-23T00:02:58.880Z,11.73
2023-04-23T00:05:31.589Z,11.72
2023-04-23T00:08:03.183Z,11.69
2023-04-23T00:10:31.816Z,11.67
2023-04-23T00:13:00.900Z,11.67
2023-04-23T00:15:30.150Z,11.66
2023-04-23T00:17:58.696Z,11.63
2023-04-23T00:20:27.276Z,11.63
2023-04-23T00:22:57.204Z,11.61
2023-04-23T00:25:25.730Z,11.60
2023-04-23T00:27:54.271Z,11.59
2023-04-23T00:30:22.872Z,11.58
2023-04-23T00:32:51.469Z,11.56
2023-04-23T00:35:20.751Z,11.56
2023-04-23T00:37:49.243Z,11.54
2023-04-23T00:40:20.527Z,11.53
2023-04-23T00:42:52.217Z,11.50
2023-04-23T00:45:21.731Z,11.48
2023-04-23T00:47:50.997Z,11.47
2023-04-23T00:50:20.771Z,11.45
2023-04-23T00:52:49.289Z,11.44
2023-04-23T00:55:21.027Z,11.43
2023-04-23T00:57:50.150Z,11.43
2023-04-23T01:00:20.422Z,11.42
2023-04-23T01:02:53.130Z,11.41
2023-04-23T01:05:24.532Z,11.39
2023-04-23T01:07:53.180Z,11.37
2023-04-23T01:10:23.222Z,11.36
2023-04-23T01:12:51.973Z,11.34
2023-04-23T01:15:20.520Z,11.33
2023-04-23T01:17:49.080Z,11.33
2023-04-23T01:20:17.662Z,11.31
2023-04-23T01:22:47.580Z,11.31
2023-04-23T01:25:16.248Z,11.28
2023-04-23T01:27:45.300Z,11.26
2023-04-23T01:30:14.757Z,11.23
2023-04-23T01:32:44.320Z,11.20
2023-04-23T01:35:13.270Z,11.20
2023-04-23T01:37:42.589Z,11.18
2023-04-23T01:40:13.297Z,11.17
2023-04-23T01:42:42.775Z,11.15
2023-04-23T01:45:12.216Z,11.13
2023-04-23T01:47:42.067Z,11.09
2023-04-23T01:50:11.069Z,11.07
2023-04-23T01:52:40.462Z,11.05
2023-04-23T01:55:09.696Z,11.02
2023-04-23T01:57:39.847Z,10.99
2023-04-23T02:00:12.289Z,10.98
2023-04-23T02:02:43.760Z,10.95
2023-04-23T02:05:14.243Z,10.93
2023-04-23T02:07:43.849Z,10.91
2023-04-23T02:10:13.270Z,10.86
2023-04-23T02:12:44.044Z,10.83
2023-04-23T02:15:12.850Z,10.80
2023-04-23T02:17:41.806Z,10.76
2023-04-23T02:20:11.884Z,10.74
2023-04-23T02:22:42.031Z,10.72
2023-04-23T02:25:11.034Z,10.71
2023-04-23T02:27:39.615Z,10.68
2023-04-23T02:30:11.422Z,10.65
2023-04-23T02:32:40.219Z,10.63
2023-04-23T02:35:10.486Z,10.60
2023-04-23T02:37:39.671Z,10.55
2023-04-23T02:40:09.692Z,10.51
2023-04-23T02:42:38.576Z,10.47
2023-04-23T02:45:09.773Z,10.44
2023-04-23T02:47:38.782Z,10.41
2023-04-23T02:50:08.572Z,10.37
2023-04-23T02:52:37.214Z,10.34
2023-04-23T02:55:07.182Z,10.33
2023-04-23T02:57:35.841Z,10.30
2023-04-23T03:00:06.414Z,10.28
2023-04-23T03:02:42.426Z,10.26
2023-04-23T03:05:11.445Z,10.25
2023-04-23T03:07:39.952Z,10.24
2023-04-23T03:10:09.487Z,10.22
2023-04-23T03:12:38.115Z,10.23
2023-04-23T03:15:08.093Z,10.25
2023-04-23T03:17:38.874Z,10.25
2023-04-23T03:20:11.798Z,10.29
2023-04-23T03:22:41.468Z,10.30
2023-04-23T03:25:11.224Z,10.32
2023-04-23T03:27:40.870Z,10.34
2023-04-23T03:30:10.725Z,10.36
2023-04-23T03:32:39.832Z,10.37
2023-04-23T03:35:10.858Z,10.37
2023-04-23T03:37:42.420Z,10.40
2023-04-23T03:40:11.380Z,10.42
2023-04-23T03:42:42.207Z,10.42
2023-04-23T03:45:14.583Z,10.44
2023-04-23T03:47:43.335Z,10.45
2023-04-23T03:50:14.246Z,10.46
2023-04-23T03:52:44.982Z,10.48
2023-04-23T03:55:21.353Z,10.48
2023-04-23T03:57:50.278Z,10.48
2023-04-23T04:00:25.160Z,10.48
2023-04-23T04:02:54.039Z,10.48
2023-04-23T04:05:26.952Z,10.48
2023-04-23T04:07:56.153Z,10.47
2023-04-23T04:10:26.450Z,10.45
2023-04-23T04:12:55.777Z,10.45
2023-04-23T04:15:24.590Z,10.44
2023-04-23T04:17:53.279Z,10.44
2023-04-23T04:20:22.096Z,10.44
2023-04-23T04:22:52.067Z,10.43
2023-04-23T04:25:22.342Z,10.43
2023-04-23T04:27:51.141Z,10.41
2023-04-23T04:30:19.824Z,10.40
2023-04-23T04:32:50.939Z,10.41
2023-04-23T04:35:19.619Z,10.42
2023-04-23T04:37:48.106Z,10.40
2023-04-23T04:40:18.541Z,10.42
2023-04-23T04:42:47.253Z,10.42
2023-04-23T04:45:17.015Z,10.43
2023-04-23T04:47:45.593Z,10.42
2023-04-23T04:50:14.242Z,10.45
2023-04-23T04:52:42.744Z,10.46
2023-04-23T04:55:11.311Z,10.49
2023-04-23T04:57:41.222Z,10.52
2023-04-23T05:00:24.339Z,10.56
2023-04-23T05:02:53.489Z,10.59
2023-04-23T05:05:23.973Z,10.63
2023-04-23T05:07:54.238Z,10.66
2023-04-23T05:10:22.937Z,10.70
2023-04-23T05:12:52.847Z,10.74
2023-04-23T05:15:21.438Z,10.77
2023-04-23T05:17:50.334Z,10.80
2023-04-23T05:20:18.948Z,10.85
2023-04-23T05:22:47.748Z,10.88
2023-04-23T05:25:16.352Z,10.92
2023-04-23T05:27:45.037Z,10.96
2023-04-23T05:30:15.388Z,10.99
2023-04-23T05:32:44.311Z,11.04
2023-04-23T05:35:12.869Z,11.07
2023-04-23T05:37:42.480Z,11.09
2023-04-23T05:40:11.644Z,11.13
2023-04-23T05:42:40.210Z,11.16
2023-04-23T05:45:09.808Z,11.18
2023-04-23T05:47:40.027Z,11.20
2023-04-23T05:50:11.242Z,11.26
2023-04-23T05:52:39.819Z,11.28
2023-04-23T05:55:09.635Z,11.30
2023-04-23T05:57:39.957Z,11.34
2023-04-23T06:00:11.826Z,11.38
2023-04-23T06:02:45.028Z,11.41
2023-04-23T06:05:14.159Z,11.44
2023-04-23T06:07:43.688Z,11.48
2023-04-23T06:10:13.148Z,11.52
2023-04-23T06:12:42.337Z,11.54
2023-04-23T06:15:11.717Z,11.57
2023-04-23T06:17:41.220Z,11.60
2023-04-23T06:20:12.003Z,11.63
2023-04-23T06:22:40.735Z,11.66
2023-04-23T06:25:10.273Z,11.70
2023-04-23T06:27:38.840Z,11.73
2023-04-23T06:30:15.975Z,11.74
2023-04-23T06:32:44.842Z,11.79
2023-04-23T06:35:15.177Z,11.83
2023-04-23T06:37:43.742Z,11.86
2023-04-23T06:40:12.547Z,11.90
2023-04-23T06:42:41.476Z,11.94
2023-04-23T06:45:31.928Z,11.99
2023-04-23T06:48:00.719Z,12.05
2023-04-23T06:50:31.135Z,12.09
2023-04-23T06:52:59.886Z,12.14
2023-04-23T06:55:29.122Z,12.19
2023-04-23T06:57:57.887Z,12.24
2023-04-23T07:00:26.940Z,12.29
2023-04-23T07:02:55.632Z,12.35
2023-04-23T07:05:24.274Z,12.38
2023-04-23T07:07:55.347Z,12.42
2023-04-23T07:10:24.973Z,12.44
2023-04-23T07:12:54.726Z,12.48
2023-04-23T07:15:24.514Z,12.50
2023-04-23T07:17:56.625Z,12.54
2023-04-23T07:20:26.633Z,12.58
2023-04-23T07:22:58.331Z,12.60
2023-04-23T07:25:31.583Z,12.63
2023-04-23T07:28:01.731Z,12.66
2023-04-23T07:30:32.209Z,12.70
2023-04-23T07:33:01.608Z,12.72
2023-04-23T07:35:32.332Z,12.74
2023-04-23T07:38:04.601Z,12.78
2023-04-23T07:40:33.771Z,12.79
2023-04-23T07:43:03.279Z,12.82
2023-04-23T07:45:32.555Z,12.84
2023-04-23T07:48:02.518Z,12.87
2023-04-23T07:50:31.321Z,12.92
2023-04-23T07:53:00.529Z,12.95
2023-04-23T07:55:31.371Z,12.99
2023-04-23T07:58:03.401Z,13.05
2023-04-23T08:00:32.447Z,13.09
2023-04-23T08:03:01.275Z,13.13
2023-04-23T08:05:30.526Z,13.19
2023-04-23T08:07:59.183Z,13.23
2023-04-23T08:10:27.678Z,13.29
2023-04-23T08:12:57.687Z,13.35
2023-04-23T08:15:26.213Z,13.40
2023-04-23T08:17:55.171Z,13.45
2023-04-23T08:20:24.030Z,13.51
2023-04-23T08:22:54.057Z,13.56
2023-04-23T08:25:22.726Z,13.62
2023-04-23T08:27:51.361Z,13.68
2023-04-23T08:30:21.422Z,13.75
2023-04-23T08:32:53.700Z,13.86
2023-04-23T08:35:24.455Z,13.97
2023-04-23T08:37:54.667Z,14.09
2023-04-23T08:40:23.234Z,14.19
2023-04-23T08:42:58.298Z,14.26
2023-04-23T08:45:28.842Z,14.33
2023-04-23T08:48:03.599Z,14.38
2023-04-23T08:50:32.285Z,14.45
2023-04-23T08:53:03.763Z,14.51
2023-04-23T08:55:33.036Z,14.54
2023-04-23T08:58:03.044Z,14.59
2023-04-23T09:00:34.357Z,14.63
2023-04-23T09:03:03.240Z,14.67
2023-04-23T09:05:32.683Z,14.73
2023-04-23T09:08:01.319Z,14.81
2023-04-23T09:10:30.402Z,14.89
2023-04-23T09:12:59.044Z,14.99
2023-04-23T09:15:28.208Z,15.07
2023-04-23T09:17:59.323Z,15.14
2023-04-23T09:20:27.982Z,15.20
2023-04-23T09:22:56.849Z,15.26
2023-04-23T09:25:26.838Z,15.31
2023-04-23T09:27:55.550Z,15.38
2023-04-23T09:30:25.463Z,15.42
2023-04-23T09:32:54.313Z,15.46
2023-04-23T09:35:24.177Z,15.49
2023-04-23T09:37:53.428Z,15.52
2023-04-23T09:40:24.984Z,15.56
2023-04-23T09:42:54.929Z,15.66
2023-04-23T09:45:25.140Z,15.76
2023-04-23T09:47:55.855Z,15.82
2023-04-23T09:50:36.664Z,15.88
2023-04-23T09:53:06.077Z,15.94
2023-04-23T09:55:39.058Z,15.99
2023-04-23T09:58:15.084Z,16.06
2023-04-23T10:00:44.173Z,16.15
2023-04-23T10:03:12.921Z,16.25
2023-04-23T10:08:16.809Z,16.41
2023-04-23T10:11:00.036Z,16.46
2023-04-23T10:13:36.305Z,16.49
2023-04-23T10:16:20.673Z,16.49
2023-04-23T10:18:54.038Z,16.50
2023-04-23T10:21:39.404Z,16.51
2023-04-23T10:24:12.086Z,16.53
2023-04-23T10:26:44.225Z,16.58
2023-04-23T10:29:16.266Z,16.59
2023-04-23T10:31:47.170Z,16.61
2023-04-23T10:34:16.824Z,16.60
2023-04-23T10:36:47.015Z,16.63
2023-04-23T10:39:24.037Z,16.62
2023-04-23T10:41:59.758Z,16.64
2023-04-23T10:44:56.763Z,16.66
2023-04-23T10:47:23.751Z,16.69
2023-04-23T10:49:52.893Z,16.72
2023-04-23T10:52:24.586Z,16.72
2023-04-23T10:54:59.977Z,16.74
2023-04-23T10:57:28.858Z,16.74
2023-04-23T10:59:59.109Z,16.72
2023-04-23T11:02:43.606Z,16.70
2023-04-23T11:05:12.358Z,16.68
2023-04-23T11:07:42.268Z,16.63
2023-04-23T11:10:15.367Z,16.59
2023-04-23T11:12:45.513Z,16.58
2023-04-23T11:15:15.415Z,16.57
2023-04-23T11:18:03.463Z,16.55
2023-04-23T11:20:32.292Z,16.51
2023-04-23T11:23:02.227Z,16.48
2023-04-23T11:25:31.113Z,16.48
2023-04-23T11:28:00.268Z,16.51
2023-04-23T11:30:31.527Z,16.59
2023-04-23T11:33:01.963Z,16.68
2023-04-23T11:35:38.493Z,16.75
2023-04-23T11:38:11.146Z,16.79
2023-04-23T11:40:43.414Z,16.83
2023-04-23T11:43:12.584Z,16.83
2023-04-23T11:45:41.305Z,16.86
2023-04-23T11:48:10.587Z,16.94
2023-04-23T11:50:39.548Z,17.02
2023-04-23T11:53:14.840Z,17.15
2023-04-23T11:55:44.106Z,17.26
2023-04-23T11:58:13.783Z,17.31
2023-04-23T12:00:42.731Z,17.31
2023-04-23T12:03:13.857Z,17.33
2023-04-23T12:05:45.399Z,17.44
2023-04-23T12:08:18.397Z,17.59
2023-04-23T12:10:49.228Z,17.74
2023-04-23T12:13:20.404Z,17.87
2023-04-23T12:15:51.520Z,17.96
2023-04-23T12:18:20.709Z,18.03
2023-04-23T12:20:50.131Z,18.09
2023-04-23T12:23:20.473Z,18.11
2023-04-23T12:25:49.297Z,18.10
2023-04-23T12:28:23.577Z,18.10
2023-04-23T12:30:52.201Z,18.09
2023-04-23T12:33:22.311Z,18.09
2023-04-23T12:35:55.967Z,18.09
2023-04-23T12:38:30.364Z,18.13
2023-04-23T12:41:06.189Z,18.23
2023-04-23T12:43:35.697Z,18.40
2023-04-23T12:46:04.335Z,18.58
2023-04-23T12:48:32.995Z,18.70
2023-04-23T12:51:04.295Z,18.78
2023-04-23T12:53:34.211Z,18.85
2023-04-23T12:56:02.648Z,18.86
2023-04-23T12:58:31.542Z,18.99
2023-04-23T13:01:00.321Z,19.08
2023-04-23T13:03:28.978Z,19.20
2023-04-23T13:05:58.148Z,19.27
2023-04-23T13:08:27.302Z,19.39
2023-04-23T13:11:15.249Z,19.51
2023-04-23T13:13:44.879Z,19.55
2023-04-23T13:16:14.038Z,19.50
2023-04-23T13:18:43.468Z,19.50
2023-04-23T13:21:12.271Z,19.56
2023-04-23T13:23:41.205Z,19.58
2023-04-23T13:26:11.178Z,19.58
2023-04-23T13:28:39.843Z,19.65
2023-04-23T13:31:08.486Z,19.73
2023-04-23T13:33:36.955Z,19.83
2023-04-23T13:36:07.083Z,19.94
2023-04-23T13:38:35.916Z,19.97
2023-04-23T13:41:04.856Z,19.93
2023-04-23T13:43:35.081Z,19.95
2023-04-23T13:46:03.842Z,19.97
2023-04-23T13:48:33.508Z,19.92
2023-04-23T13:51:10.897Z,19.92
2023-04-23T13:53:46.238Z,19.87
2023-04-23T13:56:16.136Z,19.82
2023-04-23T13:59:18.428Z,19.79
2023-04-23T14:01:50.257Z,19.71
2023-04-23T14:04:20.688Z,19.64
2023-04-23T14:06:49.439Z,19.56
2023-04-23T14:09:23.160Z,19.50
2023-04-23T14:11:54.070Z,19.49
2023-04-23T14:14:24.156Z,19.47
2023-04-23T14:16:52.676Z,19.43
2023-04-23T14:19:21.105Z,19.38
2023-04-23T14:21:49.702Z,19.34
2023-04-23T14:24:19.840Z,19.30
2023-04-23T14:26:50.055Z,19.26
2023-04-23T14:29:24.456Z,19.22
2023-04-23T14:31:54.562Z,19.12
2023-04-23T14:34:23.256Z,19.05
2023-04-23T14:36:53.222Z,18.97
2023-04-23T14:39:24.430Z,18.90
2023-04-23T14:41:52.989Z,18.86
2023-04-23T14:44:23.326Z,18.80
2023-04-23T14:46:51.817Z,18.77
2023-04-23T14:49:22.010Z,18.77
2023-04-23T14:51:54.941Z,18.74
2023-04-23T14:54:23.745Z,18.70
2023-04-23T14:56:53.250Z,18.62
2023-04-23T14:59:22.116Z,18.58
2023-04-23T15:01:50.916Z,18.57
2023-04-23T15:04:21.741Z,18.55
2023-04-23T15:06:50.475Z,18.53
2023-04-23T15:09:19.043Z,18.50
2023-04-23T15:11:47.673Z,18.50
2023-04-23T15:14:26.906Z,18.46
2023-04-23T15:16:55.523Z,18.38
2023-04-23T15:19:25.528Z,18.27
2023-04-23T15:21:54.054Z,18.18
2023-04-23T15:24:22.721Z,18.13
2023-04-23T15:26:53.514Z,18.06
2023-04-23T15:29:24.377Z,17.98
2023-04-23T15:31:58.022Z,17.87
2023-04-23T15:34:28.237Z,17.77
2023-04-23T15:36:56.761Z,17.60
2023-04-23T15:39:26.262Z,17.40
2023-04-23T15:41:58.277Z,17.24
2023-04-23T15:44:27.206Z,17.08
2023-04-23T15:46:55.719Z,16.94
2023-04-23T15:49:24.282Z,16.84
2023-04-23T15:51:54.901Z,16.72
2023-04-23T15:54:23.445Z,16.60
2023-04-23T15:56:52.220Z,16.49
2023-04-23T15:59:20.821Z,16.30
2023-04-23T16:01:49.576Z,16.14
2023-04-23T16:04:18.282Z,15.98
2023-04-23T16:06:46.970Z,15.83
2023-04-23T16:09:16.906Z,15.68
2023-04-23T16:11:45.591Z,15.56
2023-04-23T16:14:15.265Z,15.44
2023-04-23T16:16:43.986Z,15.31
2023-04-23T16:19:12.929Z,15.22
2023-04-23T16:21:41.513Z,15.13
2023-04-23T16:24:10.242Z,15.01
2023-04-23T16:26:41.091Z,14.95
2023-04-23T16:29:21.362Z,14.91
2023-04-23T16:31:51.318Z,14.87
2023-04-23T16:34:20.031Z,14.86
2023-04-23T16:36:48.745Z,14.84
2023-04-23T16:39:17.380Z,14.81
2023-04-23T16:41:47.283Z,14.77
2023-04-23T16:44:15.723Z,14.75
2023-04-23T16:46:44.566Z,14.73
2023-04-23T16:49:14.427Z,14.69
2023-04-23T16:51:46.386Z,14.65
2023-04-23T16:54:19.495Z,14.60
2023-04-23T16:56:49.470Z,14.56
2023-04-23T16:59:18.260Z,14.50
2023-04-23T17:01:49.320Z,14.48
2023-04-23T17:04:19.146Z,14.43
2023-04-23T17:06:47.946Z,14.37
2023-04-23T17:09:17.021Z,14.34
2023-04-23T17:11:45.771Z,14.29
2023-04-23T17:14:16.367Z,14.23
2023-04-23T17:16:45.726Z,14.20
2023-04-23T17:19:14.673Z,14.18
2023-04-23T17:21:44.194Z,14.19
2023-04-23T17:24:13.880Z,14.18
2023-04-23T17:26:42.953Z,14.17
2023-04-23T17:29:13.772Z,14.16
2023-04-23T17:31:43.983Z,14.15
2023-04-23T17:34:12.944Z,14.13
2023-04-23T17:36:41.889Z,14.10
2023-04-23T17:39:10.876Z,14.05
2023-04-23T17:41:39.907Z,14.02
2023-04-23T17:44:08.706Z,13.99
2023-04-23T17:46:37.678Z,13.97
2023-04-23T17:49:08.046Z,13.94
2023-04-23T17:51:37.744Z,13.92
2023-04-23T17:54:07.539Z,13.89
2023-04-23T17:56:38.525Z,13.87
2023-04-23T17:59:07.977Z,13.82
2023-04-23T18:01:37.184Z,13.79
2023-04-23T18:04:07.721Z,13.77
2023-04-23T18:06:37.094Z,13.73
2023-04-23T18:09:05.820Z,13.70
2023-04-23T18:11:35.115Z,13.68
2023-04-23T18:14:03.836Z,13.64
2023-04-23T18:16:33.007Z,13.63
2023-04-23T18:19:01.695Z,13.58
2023-04-23T18:21:31.925Z,13.56
2023-04-23T18:24:01.556Z,13.53
2023-04-23T18:26:30.332Z,13.50
2023-04-23T18:28:59.543Z,13.48
2023-04-23T18:31:33.168Z,13.46
2023-04-23T18:34:03.864Z,13.43
2023-04-23T18:36:39.725Z,13.40
2023-04-23T18:39:12.197Z,13.39
2023-04-23T18:41:41.174Z,13.38
2023-04-23T18:44:13.409Z,13.36
2023-04-23T18:46:48.316Z,13.35
2023-04-23T18:49:39.804Z,13.34
2023-04-23T18:52:13.464Z,13.33
2023-04-23T18:54:47.570Z,13.32
2023-04-23T18:57:16.593Z,13.31
2023-04-23T18:59:48.299Z,13.30
2023-04-23T19:02:28.172Z,13.28
2023-04-23T19:05:04.990Z,13.29
2023-04-23T19:07:37.291Z,13.28
2023-04-23T19:10:06.764Z,13.27
2023-04-23T19:12:42.908Z,13.26
2023-04-23T19:15:15.170Z,13.25
2023-04-23T19:17:45.067Z,13.23
2023-04-23T19:20:15.613Z,13.23
2023-04-23T19:22:47.672Z,13.22
2023-04-23T19:25:16.732Z,13.20
2023-04-23T19:27:46.157Z,13.18
2023-04-23T19:30:16.323Z,13.15
2023-04-23T19:32:48.897Z,13.12
2023-04-23T19:35:20.055Z,13.09
2023-04-23T19:37:51.007Z,13.07
2023-04-23T19:40:24.270Z,13.04
2023-04-23T19:42:53.114Z,13.02
2023-04-23T19:45:23.130Z,12.98
2023-04-23T19:47:52.655Z,12.98
2023-04-23T19:50:21.879Z,12.94
2023-04-23T19:52:53.397Z,12.94
2023-04-23T19:55:27.108Z,12.91
2023-04-23T19:57:57.127Z,12.90
2023-04-23T20:00:27.121Z,12.89
2023-04-23T20:02:58.294Z,12.92
2023-04-23T20:05:31.699Z,12.93
2023-04-23T20:08:04.638Z,12.91
2023-04-23T20:10:37.254Z,12.88
2023-04-23T20:13:08.073Z,12.86
2023-04-23T20:15:38.216Z,12.81
2023-04-23T20:18:07.968Z,12.77
2023-04-23T20:20:40.292Z,12.72
2023-04-23T20:23:10.897Z,12.69
2023-04-23T20:25:40.151Z,12.65
2023-04-23T20:28:10.034Z,12.62
2023-04-23T20:30:41.171Z,12.58
2023-04-23T20:33:11.553Z,12.56
2023-04-23T20:35:41.923Z,12.54
2023-04-23T20:38:13.461Z,12.51
2023-04-23T20:40:42.857Z,12.47
2023-04-23T20:43:12.580Z,12.43
2023-04-23T20:45:43.505Z,12.41
2023-04-23T20:48:12.751Z,12.39
2023-04-23T20:50:42.059Z,12.37
2023-04-23T20:53:14.416Z,12.37
2023-04-23T20:55:44.133Z,12.36
2023-04-23T20:58:14.094Z,12.36
2023-04-23T21:00:44.043Z,12.35
2023-04-23T21:03:15.593Z,12.34
2023-04-23T21:05:46.603Z,12.34
2023-04-23T21:08:17.186Z,12.34
2023-04-23T21:10:46.973Z,12.34
2023-04-23T21:13:16.213Z,12.34
2023-04-23T21:15:45.869Z,12.35
2023-04-23T21:18:15.010Z,12.35
2023-04-23T21:20:44.350Z,12.35
2023-04-23T21:23:14.287Z,12.34
2023-04-23T21:25:46.660Z,12.32
2023-04-23T21:28:17.191Z,12.30
2023-04-23T21:30:51.221Z,12.27
2023-04-23T21:33:22.640Z,12.26
2023-04-23T21:35:53.365Z,12.22
2023-04-23T21:38:22.798Z,12.19
2023-04-23T21:40:53.034Z,12.16
2023-04-23T21:43:21.757Z,12.14
2023-04-23T21:45:50.496Z,12.09
2023-04-23T21:48:19.152Z,12.03
2023-04-23T21:50:48.518Z,12.02
2023-04-23T21:53:17.280Z,11.98
2023-04-23T21:55:45.850Z,11.96
2023-04-23T21:58:17.814Z,11.94
2023-04-23T22:00:47.968Z,11.91
2023-04-23T22:03:29.709Z,11.89
2023-04-23T22:06:08.043Z,11.86
2023-04-23T22:08:39.312Z,11.86
2023-04-23T22:11:08.056Z,11.86
2023-04-23T22:13:37.925Z,11.86
2023-04-23T22:16:20.323Z,11.85
2023-04-23T22:18:56.363Z,11.84
2023-04-23T22:21:25.087Z,11.85
2023-04-23T22:23:53.729Z,11.83
2023-04-23T22:26:22.376Z,11.83
2023-04-23T22:28:53.379Z,11.83
2023-04-23T22:31:22.044Z,11.83
2023-04-23T22:33:50.726Z,11.83
2023-04-23T22:36:19.334Z,11.83
2023-04-23T22:38:48.070Z,11.82
2023-04-23T22:41:16.596Z,11.83
2023-04-23T22:43:45.255Z,11.85
2023-04-23T22:46:15.249Z,11.87
2023-04-23T22:48:44.886Z,11.90
2023-04-23T22:51:13.650Z,11.94
2023-04-23T22:53:42.263Z,11.96
2023-04-23T22:56:11.064Z,11.97
2023-04-23T22:58:39.801Z,12.00
2023-04-23T23:01:08.572Z,12.00
2023-04-23T23:03:38.672Z,11.99
2023-04-23T23:06:07.382Z,11.99
2023-04-23T23:08:35.868Z,12.00
2023-04-23T23:11:09.859Z,11.99
2023-04-23T23:13:39.729Z,11.99
2023-04-23T23:16:08.516Z,11.97
2023-04-23T23:18:38.588Z,11.97
2023-04-23T23:21:07.470Z,11.97
2023-04-23T23:23:39.017Z,11.96
2023-04-23T23:26:11.206Z,11.95
2023-04-23T23:28:39.831Z,11.96
2023-04-23T23:31:11.431Z,11.95
2023-04-23T23:33:41.574Z,11.94
2023-04-23T23:36:10.258Z,11.95
2023-04-23T23:38:39.533Z,11.94
2023-04-23T23:41:08.156Z,11.93
2023-04-23T23:43:36.785Z,11.94
2023-04-23T23:46:05.546Z,11.94
2023-04-23T23:48:35.926Z,11.94
2023-04-23T23:51:06.200Z,11.93
2023-04-23T23:53:34.849Z,11.91
2023-04-23T23:56:04.014Z,11.89
2023-04-23T23:58:35.465Z,11.86
